Navegantes, Brazil
Current Conditions -  °F | °C
As of 10:00 AM on Sunday 23 Nov 2014 (Local Time) from SBNF Reporting Station
Broken Clouds Broken Clouds  
Wind Chill: 79°   Ceiling: 2500
Heat Index: 81°   Visibility: 6mi
Dew Point: 68°   Wind: 9mph
Humidity: 69%   Direction: 130°SE
Pressure: 29.94"   Gusts: NA
Location:  26.9°S, 48.65°W
Report Text: SBNF 231200Z 13008KT 9999 BKN025 SCT045 26/20 Q1014
Loading
Personal Weather Stations






























Interactive Weather Map New forecast layout! Learn more

10-Day Weather Forecast

Advertisements
Track Severe Weather on mobile